createdAt,value
2022-11-17T00:06:35.635Z,97657.28
2022-11-17T00:26:37.210Z,97638.34
2022-11-17T00:46:39.639Z,97636.91
2022-11-17T01:06:41.236Z,97632.41
2022-11-17T01:26:43.501Z,97649.09
2022-11-17T01:46:45.304Z,97625.84
2022-11-17T02:06:47.342Z,97571.59
2022-11-17T02:26:49.251Z,97583.84
2022-11-17T02:46:52.602Z,97571.16
2022-11-17T03:06:54.777Z,97558.13
2022-11-17T03:26:56.985Z,97556.53
2022-11-17T03:46:58.436Z,97562.81
2022-11-17T04:07:00.789Z,97569.78
2022-11-17T04:27:04.556Z,97565.44
2022-11-17T04:47:06.534Z,97573.16
2022-11-17T05:07:08.984Z,97586.66
2022-11-17T05:27:11.567Z,97582.34
2022-11-17T09:08:49.897Z,97655.19
2022-11-17T09:28:52.366Z,97672.38
2022-11-17T09:48:54.433Z,97657.09
2022-11-17T10:08:56.543Z,97631.09
2022-11-17T10:28:58.574Z,97618.88
2022-11-17T10:49:00.393Z,97602.06
2022-11-17T11:09:02.069Z,97620.53
2022-11-17T11:29:04.380Z,97612.16
2022-11-17T11:49:06.048Z,97647.16
2022-11-17T12:09:07.854Z,97640.22
2022-11-17T12:49:41.327Z,97684.81
2022-11-17T13:09:43.084Z,97680.88
2022-11-17T13:29:45.230Z,97673.44
2022-11-17T13:49:48.969Z,97625.19
2022-11-17T14:09:51.271Z,97585.44
2022-11-17T14:29:53.475Z,97608.75
2022-11-17T14:49:55.678Z,97661.13
2022-11-17T15:09:57.564Z,97656.88
2022-11-17T15:30:00.158Z,97686.84
2022-11-17T15:50:02.130Z,97668.13
2022-11-17T16:10:03.802Z,97685.84
2022-11-17T16:30:06.246Z,97673.78
2022-11-17T16:50:07.836Z,97677.06
2022-11-17T17:10:09.767Z,97686.03
2022-11-17T17:30:11.326Z,97654.16
2022-11-17T17:50:13.509Z,97640.50
2022-11-17T18:10:15.215Z,97636.16
2022-11-17T18:30:17.111Z,97620.47
2022-11-17T18:50:18.736Z,97633.47
2022-11-17T19:10:21.464Z,97640.44
2022-11-17T19:30:22.933Z,97638.09
2022-11-17T19:50:25.054Z,97639.16
2022-11-17T20:10:26.765Z,97642.78
2022-11-17T20:30:28.744Z,97639.00
2022-11-17T20:50:30.320Z,97638.66
2022-11-17T21:10:32.808Z,97626.66
2022-11-17T21:30:34.238Z,97612.22
2022-11-17T21:50:36.660Z,97613.88
2022-11-17T22:10:38.097Z,97619.81
2022-11-17T22:30:40.780Z,97637.97
2022-11-17T22:50:42.934Z,97631.66
2022-11-17T23:10:45.073Z,97583.38
2022-11-17T23:30:47.189Z,97572.28
2022-11-17T23:50:49.457Z,97560.03
